• Join FlightAware (Why Join?)
  • Login
  • US Flag 
07:27AM EST


 

Airport Tracker/Info


-or-


 

Live Flight TrackerFlight Track Log ✈ N960DL ✈ 20-Jun-2013 ✈ KATL - KMEM

Flight Track Log - Related Links

Times and Time Zones

All times are in EDT time to prevent confusion due to time zone crossing. See the N960DL flight status page for this flight to view local times or setup timezone preferences in your user account.

Time Position Orientation Groundspeed Altitude Reporting Facility
EDT Latitude Longitude Course Direction KTS MPH feet Rate Location/Type
10:43AM 33.6478 -84.3808 252° West 442 509 2,300  Level Atlanta Center
10:44AM 33.6708 -84.3108 68° East 338 389 4,800 2,760 Climbing Atlanta Center
10:45AM 33.8001 -84.3822 270° West  Level FlightAware Approximate
10:45AM 33.7419 -84.2836 18° North 275 316 7,900  Level Atlanta Center
10:46AM 33.8000 -84.5260 270° West  Level FlightAware Approximate
10:46AM 33.8086 -84.3064 344° North 298 343 10,100  Level Atlanta Center
10:47AM 33.7861 -84.6671 252° West  Level FlightAware Approximate
10:47AM 33.8083 -84.4189 270° West 340 391 11,600  Level Atlanta Center
10:48AM 33.7485 -84.8036 252° West  Level FlightAware Approximate
10:48AM 33.8100 -84.5514 271° West 380 437 13,700  Level Atlanta Center
10:49AM 33.7906 -84.6836 260° West 401 461 16,000 2,160 Climbing Atlanta Center
10:50AM 33.7667 -84.8208 258° West 414 476 18,100 2,100 Climbing Atlanta Center
10:51AM 33.7594 -84.9558 266° West 432 497 20,200 2,100 Climbing Atlanta Center
10:52AM 33.7542 -85.1031 268° West 442 509 22,400 1,860 Climbing Atlanta Center
10:53AM 33.7486 -85.2531 267° West 448 516 24,000 1,680 Climbing Atlanta Center
10:54AM 33.7428 -85.4053 267° West 454 522 25,800 2,340 Climbing Atlanta Center
10:55AM 33.7369 -85.5525 267° West 459 528 28,700 2,100 Climbing Atlanta Center
10:56AM 33.7308 -85.7072 267° West 443 510 30,000 1,380 Climbing Atlanta Center
10:57AM 33.7225 -85.8422 266° West 426 490 31,500 1,500 Climbing Atlanta Center
10:58AM 33.7164 -85.9767 267° West 414 476 33,000 1,260 Climbing Atlanta Center
10:59AM 33.7078 -86.1189 266° West 414 476 34,100 900 Climbing Atlanta Center
11:00AM 33.7014 -86.2511 267° West 419 482 34,900 600 Climbing Atlanta Center
11:01AM 33.6947 -86.3883 267° West 414 476 35,400 420 Climbing Atlanta Center
11:02AM 33.6878 -86.5253 267° West 414 476 35,800 300 Climbing Atlanta Center
11:03AM 33.6808 -86.6625 267° West 419 482 36,000 60 Climbing Atlanta Center
11:04AM 33.6736 -86.7994 266° West 419 482 36,000  Level Atlanta Center
11:05AM 33.6872 -86.9322 277° West 408 470 36,000  Level Atlanta Center
11:06AM 33.7428 -87.0517 299° West 400 460 36,000  Level Atlanta Center
11:07AM 33.7983 -87.1711 299° West 400 460 36,000  Level Atlanta Center
11:08AM 33.8536 -87.2906 299° West 407 468 36,000  Level Atlanta Center
11:09AM 33.9364 -87.4581 301° West 411 473 36,000  Level Memphis Center
11:10AM 33.9806 -87.5642 297° West 411 473 36,000  Level Memphis Center
11:11AM 34.0394 -87.6850 300° West 404 465 36,000  Level Memphis Center
11:12AM 34.0942 -87.7989 300° West 404 465 36,000  Level Memphis Center
11:13AM 34.1528 -87.9150 301° West 410 472 36,000  Level Memphis Center
11:14AM 34.2072 -88.0339 299° West 410 472 36,000  Level Memphis Center
11:15AM 34.2658 -88.1506 301° West 404 465 36,000 -660 Level Memphis Center
11:16AM 34.3219 -88.2722 299° West 410 472 34,700 -2,100 Descending Memphis Center
11:17AM 34.3803 -88.3892 301° West 410 472 31,800 -3,120 Descending Memphis Center
11:18AM 34.4406 -88.5061 302° West 415 478 28,500 -2,820 Descending Memphis Center
11:19AM 34.5008 -88.6308 300° West 415 478 26,200 -2,220 Descending Memphis Center
11:20AM 34.5608 -88.7556 300° West 421 484 24,100 -2,280 Descending Memphis Center
11:21AM 34.6272 -88.8881 301° West 416 479 21,700 -2,280 Descending Memphis Center
11:22AM 34.6642 -89.0264 288° West 425 489 19,600 -2,040 Descending Memphis Center
11:23AM 34.6928 -89.1572 285° West 418 481 17,700 -2,040 Descending Memphis Center
11:24AM 34.7231 -89.2883 286° West 410 472 15,600 -1,860 Descending Memphis Center
11:25AM 34.7492 -89.4119 284° West 398 458 14,000 -1,440 Descending Memphis Center
11:26AM 34.7792 -89.5178 289° West 379 436 12,800 -1,260 Descending Memphis Center
11:27AM 34.8278 -89.6158 301° West 348 400 11,500 -1,320 Descending Memphis Center
11:28AM 34.8742 -89.6964 305° West 318 366 10,200 -1,080 Descending Memphis Center
11:29AM 34.9206 -89.7897 301° West 292 336 9,400 -840 Descending Memphis Center
11:30AM 34.9542 -89.8631 299° West 263 303 8,600 -960 Descending Memphis Center
11:31AM 35.0147 -89.8881 341° North 226 260 7,500 -1,080 Descending Memphis Center
11:32AM 35.0772 -89.8850 North 226 260 6,500 -1,200 Descending Memphis Center
11:33AM 35.1442 -89.8872 358° North 233 268 5,100 -1,560 Descending Memphis Center
11:34AM 35.2108 -89.8869 360° North 233 268 3,400 -1,140 Descending Memphis Center
11:35AM 35.2694 -89.9094 343° North 233 268 2,900 -720 Descending Memphis Center
11:36AM 35.2500 -89.9667 247° West 216 249 2,000 -900 Descending KMEM